sensor_id;sensor_type;location;lat;lon;timestamp;pressure;altitude;pressure_sealevel;temperature;humidity
10060;BME280;5069;49.306;8.636;2024-02-26T00:02:36;98573.53;;;9.24;100.00
10060;BME280;5069;49.306;8.636;2024-02-26T00:05:39;98584.16;;;9.22;100.00
10060;BME280;5069;49.306;8.636;2024-02-26T00:08:40;98593.72;;;9.23;100.00
10060;BME280;5069;49.306;8.636;2024-02-26T00:11:42;98587.97;;;9.17;100.00
10060;BME280;5069;49.306;8.636;2024-02-26T00:14:43;98586.88;;;9.21;100.00
10060;BME280;5069;49.306;8.636;2024-02-26T00:17:47;98597.38;;;9.21;100.00
10060;BME280;5069;49.306;8.636;2024-02-26T00:20:49;98596.00;;;9.29;100.00
10060;BME280;5069;49.306;8.636;2024-02-26T00:23:50;98601.78;;;9.20;100.00
10060;BME280;5069;49.306;8.636;2024-02-26T00:26:52;98612.97;;;9.24;100.00
10060;BME280;5069;49.306;8.636;2024-02-26T00:29:56;98617.63;;;9.34;100.00
10060;BME280;5069;49.306;8.636;2024-02-26T00:32:57;98618.31;;;9.38;100.00
10060;BME280;5069;49.306;8.636;2024-02-26T00:35:59;98625.94;;;9.42;100.00
10060;BME280;5069;49.306;8.636;2024-02-26T00:39:01;98627.97;;;9.37;100.00
10060;BME280;5069;49.306;8.636;2024-02-26T00:42:02;98618.22;;;9.24;100.00
10060;BME280;5069;49.306;8.636;2024-02-26T00:45:04;98620.53;;;9.14;100.00
10060;BME280;5069;49.306;8.636;2024-02-26T00:48:07;98626.88;;;9.26;100.00
10060;BME280;5069;49.306;8.636;2024-02-26T00:51:09;98628.59;;;9.27;100.00
10060;BME280;5069;49.306;8.636;2024-02-26T00:54:10;98622.31;;;9.13;100.00
10060;BME280;5069;49.306;8.636;2024-02-26T00:57:12;98625.53;;;9.19;100.00
10060;BME280;5069;49.306;8.636;2024-02-26T01:00:14;98631.13;;;9.12;100.00
10060;BME280;5069;49.306;8.636;2024-02-26T01:03:15;98627.31;;;9.02;100.00
10060;BME280;5069;49.306;8.636;2024-02-26T01:06:17;98628.44;;;8.98;100.00
10060;BME280;5069;49.306;8.636;2024-02-26T01:09:18;98644.72;;;9.05;100.00
10060;BME280;5069;49.306;8.636;2024-02-26T01:12:20;98643.25;;;8.99;100.00
10060;BME280;5069;49.306;8.636;2024-02-26T01:15:22;98645.38;;;8.93;100.00
10060;BME280;5069;49.306;8.636;2024-02-26T01:18:25;98643.81;;;8.89;100.00
10060;BME280;5069;49.306;8.636;2024-02-26T01:21:27;98646.44;;;8.89;100.00
10060;BME280;5069;49.306;8.636;2024-02-26T01:24:30;98651.47;;;9.09;100.00
10060;BME280;5069;49.306;8.636;2024-02-26T01:27:31;98655.56;;;8.99;100.00
10060;BME280;5069;49.306;8.636;2024-02-26T01:30:33;98664.50;;;8.95;100.00
10060;BME280;5069;49.306;8.636;2024-02-26T01:33:34;98660.53;;;8.88;100.00
10060;BME280;5069;49.306;8.636;2024-02-26T01:36:36;98664.78;;;8.90;100.00
10060;BME280;5069;49.306;8.636;2024-02-26T01:39:38;98662.84;;;8.94;100.00
10060;BME280;5069;49.306;8.636;2024-02-26T01:42:39;98649.00;;;8.90;100.00
10060;BME280;5069;49.306;8.636;2024-02-26T01:45:41;98647.41;;;8.88;100.00
10060;BME280;5069;49.306;8.636;2024-02-26T01:48:43;98658.06;;;8.85;100.00
10060;BME280;5069;49.306;8.636;2024-02-26T01:51:46;98657.41;;;8.81;100.00
10060;BME280;5069;49.306;8.636;2024-02-26T01:54:47;98656.53;;;8.81;100.00
10060;BME280;5069;49.306;8.636;2024-02-26T01:57:51;98653.31;;;8.76;100.00
10060;BME280;5069;49.306;8.636;2024-02-26T02:00:54;98653.31;;;8.76;100.00
10060;BME280;5069;49.306;8.636;2024-02-26T02:03:58;98665.53;;;8.77;100.00
10060;BME280;5069;49.306;8.636;2024-02-26T02:07:01;98660.28;;;8.77;100.00
10060;BME280;5069;49.306;8.636;2024-02-26T02:10:03;98662.78;;;8.78;100.00
10060;BME280;5069;49.306;8.636;2024-02-26T02:13:05;98668.91;;;8.79;100.00
10060;BME280;5069;49.306;8.636;2024-02-26T02:16:07;98661.63;;;8.84;100.00
10060;BME280;5069;49.306;8.636;2024-02-26T02:19:08;98660.44;;;8.74;100.00
10060;BME280;5069;49.306;8.636;2024-02-26T02:22:10;98666.59;;;8.73;100.00
10060;BME280;5069;49.306;8.636;2024-02-26T02:25:11;98672.09;;;8.68;100.00
10060;BME280;5069;49.306;8.636;2024-02-26T02:28:13;98673.75;;;8.70;100.00
10060;BME280;5069;49.306;8.636;2024-02-26T02:31:15;98665.69;;;8.74;100.00
10060;BME280;5069;49.306;8.636;2024-02-26T02:34:16;98670.16;;;8.71;100.00
10060;BME280;5069;49.306;8.636;2024-02-26T02:37:18;98679.22;;;8.66;100.00
10060;BME280;5069;49.306;8.636;2024-02-26T02:40:19;98672.28;;;8.65;100.00
10060;BME280;5069;49.306;8.636;2024-02-26T02:43:21;98667.03;;;8.65;100.00
10060;BME280;5069;49.306;8.636;2024-02-26T02:46:22;98670.34;;;8.68;100.00
10060;BME280;5069;49.306;8.636;2024-02-26T02:49:24;98663.63;;;8.63;100.00
10060;BME280;5069;49.306;8.636;2024-02-26T02:52:26;98654.13;;;8.60;100.00
10060;BME280;5069;49.306;8.636;2024-02-26T02:55:27;98660.81;;;8.66;100.00
10060;BME280;5069;49.306;8.636;2024-02-26T02:58:29;98662.53;;;8.67;100.00
10060;BME280;5069;49.306;8.636;2024-02-26T03:01:30;98660.75;;;8.67;100.00
10060;BME280;5069;49.306;8.636;2024-02-26T03:04:32;98673.28;;;8.62;100.00
10060;BME280;5069;49.306;8.636;2024-02-26T03:07:34;98667.78;;;8.67;100.00
10060;BME280;5069;49.306;8.636;2024-02-26T03:10:35;98661.78;;;8.65;100.00
10060;BME280;5069;49.306;8.636;2024-02-26T03:13:37;98673.28;;;8.62;100.00
10060;BME280;5069;49.306;8.636;2024-02-26T03:16:38;98673.13;;;8.65;100.00
10060;BME280;5069;49.306;8.636;2024-02-26T03:19:40;98675.84;;;8.64;100.00
10060;BME280;5069;49.306;8.636;2024-02-26T03:22:41;98685.63;;;8.60;100.00
10060;BME280;5069;49.306;8.636;2024-02-26T03:25:44;98683.66;;;8.65;100.00
10060;BME280;5069;49.306;8.636;2024-02-26T03:28:47;98689.34;;;8.56;100.00
10060;BME280;5069;49.306;8.636;2024-02-26T03:31:49;98697.56;;;8.50;100.00
10060;BME280;5069;49.306;8.636;2024-02-26T03:34:50;98687.97;;;8.49;100.00
10060;BME280;5069;49.306;8.636;2024-02-26T03:37:55;98687.31;;;8.46;100.00
10060;BME280;5069;49.306;8.636;2024-02-26T03:40:57;98684.75;;;8.44;100.00
10060;BME280;5069;49.306;8.636;2024-02-26T03:43:58;98673.50;;;8.42;100.00
10060;BME280;5069;49.306;8.636;2024-02-26T03:47:00;98670.88;;;8.42;100.00
10060;BME280;5069;49.306;8.636;2024-02-26T03:50:01;98670.00;;;8.42;100.00
10060;BME280;5069;49.306;8.636;2024-02-26T03:53:04;98671.00;;;8.39;100.00
10060;BME280;5069;49.306;8.636;2024-02-26T03:56:06;98679.97;;;8.35;100.00
10060;BME280;5069;49.306;8.636;2024-02-26T03:59:08;98670.25;;;8.37;100.00
10060;BME280;5069;49.306;8.636;2024-02-26T04:02:09;98670.00;;;8.42;100.00
10060;BME280;5069;49.306;8.636;2024-02-26T04:05:11;98670.00;;;8.42;100.00
10060;BME280;5069;49.306;8.636;2024-02-26T04:08:13;98653.41;;;8.41;100.00
10060;BME280;5069;49.306;8.636;2024-02-26T04:11:14;98661.44;;;8.38;100.00
10060;BME280;5069;49.306;8.636;2024-02-26T04:14:19;98651.72;;;8.40;100.00
10060;BME280;5069;49.306;8.636;2024-02-26T04:17:20;98650.00;;;8.39;100.00
10060;BME280;5069;49.306;8.636;2024-02-26T04:20:22;98646.63;;;8.37;100.00
10060;BME280;5069;49.306;8.636;2024-02-26T04:23:24;98642.44;;;8.33;100.00
10060;BME280;5069;49.306;8.636;2024-02-26T04:26:25;98631.81;;;8.36;100.00
10060;BME280;5069;49.306;8.636;2024-02-26T04:29:27;98634.34;;;8.38;100.00
10060;BME280;5069;49.306;8.636;2024-02-26T04:32:28;98632.56;;;8.38;100.00
10060;BME280;5069;49.306;8.636;2024-02-26T04:35:30;98624.16;;;8.32;100.00
10060;BME280;5069;49.306;8.636;2024-02-26T04:38:31;98629.19;;;8.36;100.00
10060;BME280;5069;49.306;8.636;2024-02-26T04:41:33;98623.31;;;8.31;100.00
10060;BME280;5069;49.306;8.636;2024-02-26T04:44:34;98622.84;;;8.23;100.00
10060;BME280;5069;49.306;8.636;2024-02-26T04:47:36;98615.75;;;8.25;100.00
10060;BME280;5069;49.306;8.636;2024-02-26T04:50:37;98621.31;;;8.19;100.00
10060;BME280;5069;49.306;8.636;2024-02-26T04:53:39;98623.94;;;8.19;100.00
10060;BME280;5069;49.306;8.636;2024-02-26T04:56:41;98626.38;;;8.22;100.00
10060;BME280;5069;49.306;8.636;2024-02-26T04:59:42;98619.13;;;8.27;100.00
10060;BME280;5069;49.306;8.636;2024-02-26T05:02:44;98620.69;;;8.31;100.00
10060;BME280;5069;49.306;8.636;2024-02-26T05:05:45;98629.63;;;8.27;100.00
10060;BME280;5069;49.306;8.636;2024-02-26T05:08:47;98635.78;;;8.26;100.00
10060;BME280;5069;49.306;8.636;2024-02-26T05:11:48;98637.72;;;8.22;100.00
10060;BME280;5069;49.306;8.636;2024-02-26T05:14:50;98644.00;;;8.20;100.00
10060;BME280;5069;49.306;8.636;2024-02-26T05:17:52;98639.25;;;8.26;100.00
10060;BME280;5069;49.306;8.636;2024-02-26T05:20:54;98638.59;;;8.23;100.00
10060;BME280;5069;49.306;8.636;2024-02-26T05:23:55;98636.88;;;8.22;100.00
10060;BME280;5069;49.306;8.636;2024-02-26T05:26:57;98638.13;;;8.15;100.00
10060;BME280;5069;49.306;8.636;2024-02-26T05:29:59;98637.19;;;8.16;100.00
10060;BME280;5069;49.306;8.636;2024-02-26T05:33:00;98641.06;;;8.09;100.00
10060;BME280;5069;49.306;8.636;2024-02-26T05:36:02;98646.16;;;8.12;100.00
10060;BME280;5069;49.306;8.636;2024-02-26T05:39:05;98651.56;;;8.09;100.00
10060;BME280;5069;49.306;8.636;2024-02-26T05:42:07;98655.25;;;8.05;100.00
10060;BME280;5069;49.306;8.636;2024-02-26T05:45:10;98662.75;;;7.95;100.00
10060;BME280;5069;49.306;8.636;2024-02-26T05:48:12;98667.16;;;7.95;100.00
10060;BME280;5069;49.306;8.636;2024-02-26T05:51:14;98669.16;;;8.07;100.00
10060;BME280;5069;49.306;8.636;2024-02-26T05:54:15;98675.94;;;8.11;100.00
10060;BME280;5069;49.306;8.636;2024-02-26T05:57:17;98678.94;;;8.03;100.00
10060;BME280;5069;49.306;8.636;2024-02-26T06:00:20;98695.03;;;7.97;100.00
10060;BME280;5069;49.306;8.636;2024-02-26T06:03:21;98697.13;;;8.08;100.00
10060;BME280;5069;49.306;8.636;2024-02-26T06:06:23;98706.81;;;8.06;100.00
10060;BME280;5069;49.306;8.636;2024-02-26T06:09:25;98705.91;;;7.89;100.00
10060;BME280;5069;49.306;8.636;2024-02-26T06:12:27;98716.06;;;7.78;100.00
10060;BME280;5069;49.306;8.636;2024-02-26T06:15:29;98734.50;;;7.77;100.00
10060;BME280;5069;49.306;8.636;2024-02-26T06:18:32;98741.09;;;7.85;100.00
10060;BME280;5069;49.306;8.636;2024-02-26T06:21:34;98750.78;;;7.83;100.00
10060;BME280;5069;49.306;8.636;2024-02-26T06:24:35;98746.41;;;7.84;100.00
10060;BME280;5069;49.306;8.636;2024-02-26T06:27:36;98763.13;;;7.81;100.00
10060;BME280;5069;49.306;8.636;2024-02-26T06:30:38;98761.72;;;7.74;100.00
10060;BME280;5069;49.306;8.636;2024-02-26T06:33:39;98775.78;;;7.73;100.00
10060;BME280;5069;49.306;8.636;2024-02-26T06:36:41;98776.91;;;7.68;100.00
10060;BME280;5069;49.306;8.636;2024-02-26T06:39:43;98779.94;;;7.59;100.00
10060;BME280;5069;49.306;8.636;2024-02-26T06:42:44;98780.97;;;7.56;100.00
10060;BME280;5069;49.306;8.636;2024-02-26T06:45:49;98780.50;;;7.65;100.00
10060;BME280;5069;49.306;8.636;2024-02-26T06:48:51;98775.91;;;7.70;100.00
10060;BME280;5069;49.306;8.636;2024-02-26T06:51:56;98779.25;;;7.74;100.00
10060;BME280;5069;49.306;8.636;2024-02-26T06:54:58;98783.47;;;7.76;100.00
10060;BME280;5069;49.306;8.636;2024-02-26T06:57:59;98784.38;;;7.75;100.00
10060;BME280;5069;49.306;8.636;2024-02-26T07:01:01;98786.25;;;7.73;100.00
10060;BME280;5069;49.306;8.636;2024-02-26T07:04:03;98793.91;;;7.78;100.00
10060;BME280;5069;49.306;8.636;2024-02-26T07:07:05;98796.28;;;7.82;100.00
10060;BME280;5069;49.306;8.636;2024-02-26T07:10:06;98805.66;;;7.88;100.00
10060;BME280;5069;49.306;8.636;2024-02-26T07:13:08;98794.84;;;7.94;100.00
10060;BME280;5069;49.306;8.636;2024-02-26T07:16:10;98793.88;;;7.97;100.00
10060;BME280;5069;49.306;8.636;2024-02-26T07:19:12;98801.81;;;7.95;100.00
10060;BME280;5069;49.306;8.636;2024-02-26T07:22:14;98809.75;;;7.94;100.00
10060;BME280;5069;49.306;8.636;2024-02-26T07:25:16;98809.13;;;7.88;100.00
10060;BME280;5069;49.306;8.636;2024-02-26T07:28:17;98812.59;;;7.89;100.00
10060;BME280;5069;49.306;8.636;2024-02-26T07:31:19;98813.28;;;7.93;100.00
10060;BME280;5069;49.306;8.636;2024-02-26T07:34:20;98816.88;;;7.92;100.00
10060;BME280;5069;49.306;8.636;2024-02-26T07:37:29;98822.09;;;7.92;100.00
10060;BME280;5069;49.306;8.636;2024-02-26T07:40:30;98813.75;;;7.83;100.00
10060;BME280;5069;49.306;8.636;2024-02-26T07:43:32;98815.16;;;7.91;100.00
10060;BME280;5069;49.306;8.636;2024-02-26T07:46:33;98811.13;;;7.83;100.00
10060;BME280;5069;49.306;8.636;2024-02-26T07:49:35;98817.06;;;7.87;100.00
10060;BME280;5069;49.306;8.636;2024-02-26T07:52:40;98805.41;;;7.93;100.00
10060;BME280;5069;49.306;8.636;2024-02-26T07:55:41;98815.00;;;7.94;100.00
10060;BME280;5069;49.306;8.636;2024-02-26T07:58:43;98813.16;;;7.96;100.00
10060;BME280;5069;49.306;8.636;2024-02-26T08:01:49;98807.63;;;8.02;100.00
10060;BME280;5069;49.306;8.636;2024-02-26T08:04:56;98807.31;;;8.08;100.00
10060;BME280;5069;49.306;8.636;2024-02-26T08:07:58;98810.00;;;8.06;100.00
10060;BME280;5069;49.306;8.636;2024-02-26T08:10:59;98808.69;;;8.15;100.00
10060;BME280;5069;49.306;8.636;2024-02-26T08:14:01;98808.41;;;8.21;100.00
10060;BME280;5069;49.306;8.636;2024-02-26T08:17:02;98812.59;;;8.25;100.00
10060;BME280;5069;49.306;8.636;2024-02-26T08:20:05;98822.16;;;8.26;100.00
10060;BME280;5069;49.306;8.636;2024-02-26T08:23:06;98828.09;;;8.31;100.00
10060;BME280;5069;49.306;8.636;2024-02-26T08:26:08;98828.53;;;8.39;100.00
10060;BME280;5069;49.306;8.636;2024-02-26T08:29:12;98819.56;;;8.43;100.00
10060;BME280;5069;49.306;8.636;2024-02-26T08:32:14;98817.44;;;8.51;100.00
10060;BME280;5069;49.306;8.636;2024-02-26T08:35:15;98816.19;;;8.58;100.00
10060;BME280;5069;49.306;8.636;2024-02-26T08:38:17;98815.09;;;8.62;100.00
10060;BME280;5069;49.306;8.636;2024-02-26T08:41:19;98808.88;;;8.65;100.00
10060;BME280;5069;49.306;8.636;2024-02-26T08:44:20;98813.81;;;8.71;100.00
10060;BME280;5069;49.306;8.636;2024-02-26T08:47:22;98815.41;;;8.74;100.00
10060;BME280;5069;49.306;8.636;2024-02-26T08:50:23;98815.28;;;8.77;100.00
10060;BME280;5069;49.306;8.636;2024-02-26T08:53:25;98824.38;;;8.87;100.00
10060;BME280;5069;49.306;8.636;2024-02-26T08:56:41;98828.38;;;8.94;100.00
10060;BME280;5069;49.306;8.636;2024-02-26T08:59:43;98830.53;;;9.03;100.00
10060;BME280;5069;49.306;8.636;2024-02-26T09:02:45;98828.69;;;9.05;100.00
10060;BME280;5069;49.306;8.636;2024-02-26T09:05:46;98828.91;;;9.00;100.00
10060;BME280;5069;49.306;8.636;2024-02-26T09:08:48;98834.06;;;9.02;100.00
10060;BME280;5069;49.306;8.636;2024-02-26T09:11:50;98844.75;;;8.99;100.00
10060;BME280;5069;49.306;8.636;2024-02-26T09:14:54;98839.34;;;9.02;100.00
10060;BME280;5069;49.306;8.636;2024-02-26T09:17:57;98827.66;;;9.07;100.00
10060;BME280;5069;49.306;8.636;2024-02-26T09:20:59;98832.00;;;9.08;100.00
10060;BME280;5069;49.306;8.636;2024-02-26T09:24:01;98841.25;;;9.16;100.00
10060;BME280;5069;49.306;8.636;2024-02-26T09:27:02;98841.84;;;9.21;100.00
10060;BME280;5069;49.306;8.636;2024-02-26T09:30:04;98840.72;;;9.09;100.00
10060;BME280;5069;49.306;8.636;2024-02-26T09:33:06;98847.50;;;9.13;100.00
10060;BME280;5069;49.306;8.636;2024-02-26T09:36:08;98849.03;;;9.17;100.00
10060;BME280;5069;49.306;8.636;2024-02-26T09:39:12;98854.28;;;9.17;100.00
10060;BME280;5069;49.306;8.636;2024-02-26T09:42:19;98858.56;;;9.20;100.00
10060;BME280;5069;49.306;8.636;2024-02-26T09:45:21;98855.63;;;9.26;100.00
10060;BME280;5069;49.306;8.636;2024-02-26T09:48:24;98865.13;;;9.28;100.00
10060;BME280;5069;49.306;8.636;2024-02-26T09:51:26;98857.56;;;9.22;100.00
10060;BME280;5069;49.306;8.636;2024-02-26T09:54:29;98857.56;;;9.22;100.00
10060;BME280;5069;49.306;8.636;2024-02-26T09:57:32;98856.88;;;9.34;100.00
10060;BME280;5069;49.306;8.636;2024-02-26T10:00:37;98843.88;;;9.48;100.00
10060;BME280;5069;49.306;8.636;2024-02-26T10:03:41;98839.91;;;9.73;100.00
10060;BME280;5069;49.306;8.636;2024-02-26T10:06:43;98840.00;;;9.87;100.00
10060;BME280;5069;49.306;8.636;2024-02-26T10:09:46;98848.66;;;9.89;100.00
10060;BME280;5069;49.306;8.636;2024-02-26T10:12:48;98854.44;;;9.95;100.00
10060;BME280;5069;49.306;8.636;2024-02-26T10:15:49;98847.47;;;10.10;100.00
10060;BME280;5069;49.306;8.636;2024-02-26T10:18:52;98848.31;;;10.11;100.00
10060;BME280;5069;49.306;8.636;2024-02-26T10:22:01;98843.25;;;10.23;100.00
10060;BME280;5069;49.306;8.636;2024-02-26T10:25:05;98848.91;;;10.31;100.00
10060;BME280;5069;49.306;8.636;2024-02-26T10:28:07;98854.28;;;10.30;100.00
10060;BME280;5069;49.306;8.636;2024-02-26T10:31:09;98852.91;;;10.39;100.00
10060;BME280;5069;49.306;8.636;2024-02-26T10:34:11;98849.25;;;10.41;100.00
10060;BME280;5069;49.306;8.636;2024-02-26T10:37:12;98857.38;;;10.52;100.00
10060;BME280;5069;49.306;8.636;2024-02-26T10:40:16;98862.09;;;10.61;100.00
10060;BME280;5069;49.306;8.636;2024-02-26T10:43:17;98846.88;;;10.66;100.00
10060;BME280;5069;49.306;8.636;2024-02-26T10:46:20;98850.94;;;10.72;100.00
10060;BME280;5069;49.306;8.636;2024-02-26T10:49:21;98843.09;;;10.86;100.00
10060;BME280;5069;49.306;8.636;2024-02-26T10:52:25;98847.63;;;10.98;100.00
10060;BME280;5069;49.306;8.636;2024-02-26T10:55:27;98864.59;;;11.08;100.00
10060;BME280;5069;49.306;8.636;2024-02-26T10:58:31;98864.03;;;11.17;100.00
10060;BME280;5069;49.306;8.636;2024-02-26T11:01:34;98868.94;;;11.24;100.00
10060;BME280;5069;49.306;8.636;2024-02-26T11:04:38;98877.91;;;11.35;100.00
10060;BME280;5069;49.306;8.636;2024-02-26T11:07:41;98876.41;;;11.31;100.00
10060;BME280;5069;49.306;8.636;2024-02-26T11:10:43;98879.50;;;11.38;100.00
10060;BME280;5069;49.306;8.636;2024-02-26T11:13:46;98882.72;;;11.43;100.00
10060;BME280;5069;49.306;8.636;2024-02-26T11:16:52;98887.78;;;11.32;100.00
10060;BME280;5069;49.306;8.636;2024-02-26T11:19:58;98890.25;;;11.49;100.00
10060;BME280;5069;49.306;8.636;2024-02-26T11:22:59;98887.44;;;11.38;100.00
10060;BME280;5069;49.306;8.636;2024-02-26T11:26:02;98882.81;;;11.41;100.00
10060;BME280;5069;49.306;8.636;2024-02-26T11:29:08;98881.19;;;11.53;100.00
10060;BME280;5069;49.306;8.636;2024-02-26T11:32:11;98877.34;;;12.01;100.00
10060;BME280;5069;49.306;8.636;2024-02-26T11:35:13;98876.28;;;12.30;100.00
10060;BME280;5069;49.306;8.636;2024-02-26T11:38:24;98874.47;;;12.18;100.00
10060;BME280;5069;49.306;8.636;2024-02-26T11:41:25;98874.25;;;12.21;100.00
10060;BME280;5069;49.306;8.636;2024-02-26T11:44:30;98877.38;;;12.14;100.00
10060;BME280;5069;49.306;8.636;2024-02-26T11:47:34;98873.16;;;12.11;100.00
10060;BME280;5069;49.306;8.636;2024-02-26T11:50:40;98876.06;;;12.21;100.00
10060;BME280;5069;49.306;8.636;2024-02-26T11:53:46;98867.13;;;12.36;100.00
10060;BME280;5069;49.306;8.636;2024-02-26T11:56:50;98861.09;;;12.61;100.00
10060;BME280;5069;49.306;8.636;2024-02-26T11:59:52;98864.53;;;12.75;100.00
10060;BME280;5069;49.306;8.636;2024-02-26T12:02:55;98866.91;;;12.93;100.00
10060;BME280;5069;49.306;8.636;2024-02-26T12:06:03;98864.38;;;13.04;100.00
10060;BME280;5069;49.306;8.636;2024-02-26T12:09:05;98868.91;;;13.02;100.00
10060;BME280;5069;49.306;8.636;2024-02-26T12:12:08;98871.56;;;13.02;100.00
10060;BME280;5069;49.306;8.636;2024-02-26T12:15:11;98876.63;;;13.05;100.00
10060;BME280;5069;49.306;8.636;2024-02-26T12:18:17;98887.00;;;13.08;100.00
10060;BME280;5069;49.306;8.636;2024-02-26T12:21:19;98883.66;;;13.18;100.00
10060;BME280;5069;49.306;8.636;2024-02-26T12:24:21;98887.28;;;13.30;100.00
10060;BME280;5069;49.306;8.636;2024-02-26T12:27:23;98889.00;;;13.44;100.00
10060;BME280;5069;49.306;8.636;2024-02-26T12:30:25;98884.94;;;13.63;100.00
10060;BME280;5069;49.306;8.636;2024-02-26T12:33:27;98893.50;;;13.80;100.00
10060;BME280;5069;49.306;8.636;2024-02-26T12:36:30;98893.91;;;13.99;100.00
10060;BME280;5069;49.306;8.636;2024-02-26T12:39:31;98888.44;;;14.13;100.00
10060;BME280;5069;49.306;8.636;2024-02-26T12:42:34;98886.59;;;14.39;100.00
10060;BME280;5069;49.306;8.636;2024-02-26T12:45:40;98893.38;;;14.43;100.00
10060;BME280;5069;49.306;8.636;2024-02-26T12:48:43;98887.28;;;14.54;100.00
10060;BME280;5069;49.306;8.636;2024-02-26T12:51:47;98890.22;;;14.62;100.00
10060;BME280;5069;49.306;8.636;2024-02-26T12:54:48;98899.44;;;14.20;100.00
10060;BME280;5069;49.306;8.636;2024-02-26T12:57:51;98899.44;;;14.20;100.00
10060;BME280;5069;49.306;8.636;2024-02-26T13:00:54;98894.31;;;14.66;100.00
10060;BME280;5069;49.306;8.636;2024-02-26T13:03:56;98903.94;;;14.79;100.00
10060;BME280;5069;49.306;8.636;2024-02-26T13:06:58;98897.16;;;15.10;100.00
10060;BME280;5069;49.306;8.636;2024-02-26T13:10:05;98903.66;;;15.06;96.86
10060;BME280;5069;49.306;8.636;2024-02-26T13:13:07;98903.09;;;15.14;100.00
10060;BME280;5069;49.306;8.636;2024-02-26T13:16:13;98903.16;;;15.01;95.28
10060;BME280;5069;49.306;8.636;2024-02-26T13:19:15;98898.59;;;15.03;100.00
10060;BME280;5069;49.306;8.636;2024-02-26T13:22:20;98904.56;;;14.94;97.65
10060;BME280;5069;49.306;8.636;2024-02-26T13:25:22;98901.38;;;14.78;99.95
10060;BME280;5069;49.306;8.636;2024-02-26T13:28:24;98911.44;;;14.62;100.00
10060;BME280;5069;49.306;8.636;2024-02-26T13:31:28;98913.84;;;14.65;100.00
10060;BME280;5069;49.306;8.636;2024-02-26T13:34:30;98917.53;;;14.75;99.64
10060;BME280;5069;49.306;8.636;2024-02-26T13:37:33;98922.94;;;14.97;97.96
10060;BME280;5069;49.306;8.636;2024-02-26T13:40:35;98921.03;;;15.10;94.71
10060;BME280;5069;49.306;8.636;2024-02-26T13:43:36;98922.41;;;15.27;95.94
10060;BME280;5069;49.306;8.636;2024-02-26T13:46:38;98921.38;;;15.41;87.66
10060;BME280;5069;49.306;8.636;2024-02-26T13:49:39;98925.66;;;15.54;87.95
10060;BME280;5069;49.306;8.636;2024-02-26T13:52:41;98920.47;;;15.53;88.53
10060;BME280;5069;49.306;8.636;2024-02-26T13:55:43;98924.97;;;15.40;86.77
10060;BME280;5069;49.306;8.636;2024-02-26T13:58:45;98913.38;;;15.29;86.09
10060;BME280;5069;49.306;8.636;2024-02-26T14:01:47;98923.41;;;15.26;86.56
10060;BME280;5069;49.306;8.636;2024-02-26T14:04:48;98923.34;;;14.80;88.09
10060;BME280;5069;49.306;8.636;2024-02-26T14:07:50;98927.75;;;14.92;93.33
10060;BME280;5069;49.306;8.636;2024-02-26T14:10:53;98923.41;;;14.91;92.34
10060;BME280;5069;49.306;8.636;2024-02-26T14:13:55;98928.41;;;14.83;90.78
10060;BME280;5069;49.306;8.636;2024-02-26T14:16:57;98933.44;;;14.75;90.52
10060;BME280;5069;49.306;8.636;2024-02-26T14:19:58;98934.41;;;14.74;88.41
10060;BME280;5069;49.306;8.636;2024-02-26T14:23:00;98927.91;;;14.78;87.10
10060;BME280;5069;49.306;8.636;2024-02-26T14:26:02;98928.00;;;15.00;90.52
10060;BME280;5069;49.306;8.636;2024-02-26T14:29:05;98926.13;;;15.13;86.87
10060;BME280;5069;49.306;8.636;2024-02-26T14:32:06;98921.91;;;15.22;87.45
10060;BME280;5069;49.306;8.636;2024-02-26T14:35:09;98924.75;;;15.43;83.23
10060;BME280;5069;49.306;8.636;2024-02-26T14:38:17;98922.41;;;15.73;79.69
10060;BME280;5069;49.306;8.636;2024-02-26T14:41:18;98923.88;;;15.77;77.84
10060;BME280;5069;49.306;8.636;2024-02-26T14:44:20;98912.88;;;16.15;79.37
10060;BME280;5069;49.306;8.636;2024-02-26T14:47:21;98925.50;;;16.56;76.30
10060;BME280;5069;49.306;8.636;2024-02-26T14:50:24;98926.81;;;16.73;71.85
10060;BME280;5069;49.306;8.636;2024-02-26T14:53:26;98919.66;;;16.84;69.40
10060;BME280;5069;49.306;8.636;2024-02-26T14:56:27;98924.03;;;16.74;67.25
10060;BME280;5069;49.306;8.636;2024-02-26T14:59:29;98929.31;;;16.85;69.92
10060;BME280;5069;49.306;8.636;2024-02-26T15:02:32;98935.72;;;16.83;67.11
10060;BME280;5069;49.306;8.636;2024-02-26T15:05:34;98933.97;;;16.50;67.22
10060;BME280;5069;49.306;8.636;2024-02-26T15:08:35;98930.97;;;16.32;70.35
10060;BME280;5069;49.306;8.636;2024-02-26T15:11:40;98935.44;;;16.32;68.74
10060;BME280;5069;49.306;8.636;2024-02-26T15:14:41;98935.94;;;16.37;70.33
10060;BME280;5069;49.306;8.636;2024-02-26T15:17:43;98934.25;;;16.02;73.47
10060;BME280;5069;49.306;8.636;2024-02-26T15:20:45;98942.47;;;15.88;74.18
10060;BME280;5069;49.306;8.636;2024-02-26T15:23:49;98945.13;;;15.77;76.51
10060;BME280;5069;49.306;8.636;2024-02-26T15:27:05;98938.09;;;15.54;78.96
10060;BME280;5069;49.306;8.636;2024-02-26T15:30:07;98953.22;;;15.41;78.53
10060;BME280;5069;49.306;8.636;2024-02-26T15:33:09;98952.94;;;15.32;80.53
10060;BME280;5069;49.306;8.636;2024-02-26T15:36:11;98955.44;;;15.12;82.50
10060;BME280;5069;49.306;8.636;2024-02-26T15:39:12;98961.47;;;15.14;83.09
10060;BME280;5069;49.306;8.636;2024-02-26T15:42:14;98963.25;;;15.02;83.31
10060;BME280;5069;49.306;8.636;2024-02-26T15:45:15;98973.56;;;14.94;87.82
10060;BME280;5069;49.306;8.636;2024-02-26T15:48:17;98979.09;;;14.91;88.30
10060;BME280;5069;49.306;8.636;2024-02-26T15:51:20;98974.97;;;14.87;86.66
10060;BME280;5069;49.306;8.636;2024-02-26T15:54:23;98980.97;;;14.78;89.40
10060;BME280;5069;49.306;8.636;2024-02-26T15:57:24;98990.31;;;14.71;86.66
10060;BME280;5069;49.306;8.636;2024-02-26T16:00:26;98990.56;;;14.68;87.16
10060;BME280;5069;49.306;8.636;2024-02-26T16:03:28;98992.75;;;14.74;87.30
10060;BME280;5069;49.306;8.636;2024-02-26T16:09:37;98989.06;;;14.64;88.14
10060;BME280;5069;49.306;8.636;2024-02-26T16:12:49;98986.34;;;14.53;89.12
10060;BME280;5069;49.306;8.636;2024-02-26T16:15:58;99002.47;;;14.50;92.05
10060;BME280;5069;49.306;8.636;2024-02-26T16:19:09;99004.59;;;14.32;91.12
10060;BME280;5069;49.306;8.636;2024-02-26T16:22:12;99002.72;;;14.21;93.72